Time;durP1;ratioP1;P1;durP2;ratioP2;P2;SDS_P1;SDS_P2;PMS_P1;PMS_P2;Temp;Humidity;BMP_temperature;BMP_pressure;BME280_temperature;BME280_humidity;BME280_pressure;Samples;Min_cycle;Max_cycle;Signal;HPM_P1;HPM_P2
2022/05/08 00:00:39;;;;;;;;;;;;;;;30.09;21.40;101478.06;5056313;28;1013;-33
2022/05/08 00:03:04;;;;;;;;;;;;;;;29.37;21.90;101483.75;5056629;28;833;-31
2022/05/08 00:05:29;;;;;;;;;;;;;;;29.00;22.27;101478.06;5063922;28;824;-34
2022/05/08 00:07:55;;;;;;;;;;;;;;;29.51;22.48;101472.09;5037637;28;1977;-32
2022/05/08 00:10:20;;;;;;;;;;;;;;;29.92;21.98;101473.66;5062642;28;947;-31
2022/05/08 00:12:46;;;;;;;;;;;;;;;30.12;21.85;101475.81;5056626;28;833;-30
2022/05/08 00:15:11;;;;;;;;;;;;;;;30.27;21.54;101472.31;5056498;28;980;-30
2022/05/08 00:17:36;;;;;;;;;;;;;;;29.66;21.88;101476.78;5055810;28;890;-31
2022/05/08 00:20:02;;;;;;;;;;;;;;;29.16;22.71;101472.53;5063716;28;895;-31
2022/05/08 00:22:28;;;;;;;;;;;;;;;28.84;23.48;101477.09;5062724;28;923;-29
2022/05/08 00:24:53;;;;;;;;;;;;;;;28.65;23.66;101478.38;5056094;28;1089;-29
2022/05/08 00:27:19;;;;;;;;;;;;;;;29.35;23.10;101486.63;5056661;28;1956;-31
2022/05/08 00:29:44;;;;;;;;;;;;;;;29.66;22.51;101487.63;5060217;28;953;-29
2022/05/08 00:32:09;;;;;;;;;;;;;;;29.99;22.14;101487.31;5060168;28;807;-30
2022/05/08 00:34:35;;;;;;;;;;;;;;;30.24;21.86;101478.97;5066235;28;857;-29
2022/05/08 00:37:00;;;;;;;;;;;;;;;29.63;22.09;101477.16;5060895;28;870;-33
2022/05/08 00:39:26;;;;;;;;;;;;;;;29.09;22.55;101461.56;5060025;28;810;-31
2022/05/08 00:41:51;;;;;;;;;;;;;;;29.62;22.54;101454.63;5060087;28;887;-31
2022/05/08 00:44:17;;;;;;;;;;;;;;;30.17;21.82;101457.13;5060003;28;868;-30
2022/05/08 00:46:42;;;;;;;;;;;;;;;30.39;21.55;101461.81;5061508;28;1894;-30
2022/05/08 00:49:08;;;;;;;;;;;;;;;29.72;21.70;101470.63;5070856;28;956;-29
2022/05/08 00:51:33;;;;;;;;;;;;;;;29.28;22.25;101472.16;5068825;28;802;-32
2022/05/08 00:54:00;;;;;;;;;;;;;;;28.91;22.68;101471.84;5060019;28;921;-34
2022/05/08 00:56:25;;;;;;;;;;;;;;;28.69;23.21;101466.19;5059811;28;838;-32
2022/05/08 00:58:52;;;;;;;;;;;;;;;28.55;23.37;101462.34;5041962;28;797;-34
2022/05/08 01:01:17;;;;;;;;;;;;;;;29.00;23.42;101465.38;5065993;28;1237;-31
2022/05/08 01:03:43;;;;;;;;;;;;;;;28.89;23.47;101466.59;5059997;28;846;-32
2022/05/08 01:06:12;;;;;;;;;;;;;;;29.21;23.10;101463.88;5066217;28;1973;-29
2022/05/08 01:08:38;;;;;;;;;;;;;;;29.89;22.24;101459.63;5059498;28;865;-36
2022/05/08 01:11:04;;;;;;;;;;;;;;;30.12;21.91;101459.56;5060061;28;830;-31
2022/05/08 01:13:29;;;;;;;;;;;;;;;29.73;22.09;101461.44;5065842;28;765;-30
2022/05/08 01:15:55;;;;;;;;;;;;;;;29.19;23.01;101464.06;5059477;28;838;-31
2022/05/08 01:18:20;;;;;;;;;;;;;;;29.58;22.89;101464.94;5059287;28;782;-33
2022/05/08 01:20:46;;;;;;;;;;;;;;;30.29;21.87;101459.41;5067069;28;968;-30
2022/05/08 01:23:12;;;;;;;;;;;;;;;29.68;22.07;101459.28;5059331;28;833;-32
2022/05/08 01:25:56;;;;;;;;;;;;;;;29.09;23.01;101471.59;5059705;28;802;-31
2022/05/08 01:28:22;;;;;;;;;;;;;;;28.77;23.33;101465.28;5062707;28;769;-30
2022/05/08 01:30:48;;;;;;;;;;;;;;;28.63;23.75;101467.72;5059419;28;870;-35
2022/05/08 01:33:13;;;;;;;;;;;;;;;28.54;24.00;101471.50;5059350;28;894;-33
2022/05/08 01:35:39;;;;;;;;;;;;;;;28.43;23.87;101464.56;5065762;28;856;-28
2022/05/08 01:38:04;;;;;;;;;;;;;;;28.79;24.10;101463.25;5063557;28;908;-31
2022/05/08 01:40:30;;;;;;;;;;;;;;;28.88;23.76;101455.94;5062540;28;890;-34
2022/05/08 01:42:55;;;;;;;;;;;;;;;29.43;22.98;101467.59;5059016;28;778;-29
2022/05/08 01:45:20;;;;;;;;;;;;;;;29.92;22.56;101453.81;5059429;28;742;-30
2022/05/08 01:50:29;;;;;;;;;;;;;;;29.66;22.58;101452.38;5065091;28;711;-34
2022/05/08 01:52:55;;;;;;;;;;;;;;;30.03;22.11;101447.13;5065459;28;828;-31
2022/05/08 01:55:20;;;;;;;;;;;;;;;30.39;21.82;101453.69;5058554;28;830;-31
2022/05/08 01:57:46;;;;;;;;;;;;;;;30.06;21.81;101447.56;5058591;28;834;-31
2022/05/08 02:00:11;;;;;;;;;;;;;;;29.44;22.44;101450.34;5059004;28;1208;-31
2022/05/08 02:02:37;;;;;;;;;;;;;;;29.01;23.09;101463.50;5058724;28;811;-31
2022/05/08 02:05:03;;;;;;;;;;;;;;;28.82;23.56;101465.59;5071763;28;1035;-32
2022/05/08 02:07:28;;;;;;;;;;;;;;;28.64;23.80;101457.75;5058640;28;1914;-30
2022/05/08 02:09:53;;;;;;;;;;;;;;;28.73;24.10;101462.94;5057920;28;838;-31
2022/05/08 02:12:18;;;;;;;;;;;;;;;28.96;23.75;101458.59;5058323;28;819;-30
2022/05/08 02:14:45;;;;;;;;;;;;;;;29.01;23.74;101456.19;5058314;28;782;-34
2022/05/08 02:17:11;;;;;;;;;;;;;;;29.49;23.14;101457.91;5064625;28;818;-34
2022/05/08 02:19:36;;;;;;;;;;;;;;;29.93;22.46;101450.91;5077115;28;915;-29
2022/05/08 02:22:01;;;;;;;;;;;;;;;30.18;22.08;101447.94;5058834;28;794;-32
2022/05/08 02:24:27;;;;;;;;;;;;;;;29.66;21.84;101452.38;5058181;28;921;-31
2022/05/08 02:26:52;;;;;;;;;;;;;;;29.08;22.87;101459.91;5058154;28;1973;-29
2022/05/08 02:29:18;;;;;;;;;;;;;;;29.98;22.38;101439.50;5064669;28;799;-30
2022/05/08 02:31:43;;;;;;;;;;;;;;;30.33;22.03;101441.69;5059389;28;798;-30
2022/05/08 02:34:09;;;;;;;;;;;;;;;30.45;21.76;101436.63;5065452;28;1473;-35
2022/05/08 02:36:34;;;;;;;;;;;;;;;29.93;21.78;101453.63;5075389;28;806;-31
2022/05/08 02:38:59;;;;;;;;;;;;;;;29.67;22.15;101451.34;5077444;28;874;-31
2022/05/08 02:41:25;;;;;;;;;;;;;;;29.76;22.67;101447.53;5076754;28;806;-32
2022/05/08 02:43:50;;;;;;;;;;;;;;;29.58;22.89;101445.97;5067198;28;816;-31
2022/05/08 02:46:15;;;;;;;;;;;;;;;29.84;22.47;101452.03;5057933;28;1894;-31
2022/05/08 02:48:41;;;;;;;;;;;;;;;30.41;21.95;101454.34;5057458;28;905;-31
2022/05/08 02:51:07;;;;;;;;;;;;;;;29.90;22.18;101459.44;5064072;28;830;-32
2022/05/08 02:53:33;;;;;;;;;;;;;;;29.41;22.59;101466.13;5057550;28;890;-31
2022/05/08 02:58:42;;;;;;;;;;;;;;;30.13;22.26;101468.53;5057772;28;719;-31
2022/05/08 03:01:07;;;;;;;;;;;;;;;30.27;22.07;101465.00;5057374;28;1279;-31
2022/05/08 03:03:33;;;;;;;;;;;;;;;30.25;21.65;101461.63;5057516;28;865;-32
2022/05/08 03:05:58;;;;;;;;;;;;;;;29.68;22.10;101469.28;5073992;28;1913;-29
2022/05/08 03:08:24;;;;;;;;;;;;;;;29.20;22.73;101467.59;5073682;28;926;-33
2022/05/08 03:13:35;;;;;;;;;;;;;;;29.76;22.70;101477.34;5057223;28;786;-30
2022/05/08 03:16:00;;;;;;;;;;;;;;;30.08;22.40;101471.78;5057880;28;831;-30
2022/05/08 03:18:26;;;;;;;;;;;;;;;30.34;22.10;101472.41;5056905;28;854;-33
2022/05/08 03:20:51;;;;;;;;;;;;;;;29.88;22.40;101466.91;5065056;28;809;-31
2022/05/08 03:23:16;;;;;;;;;;;;;;;29.73;22.83;101469.59;5057441;28;790;-32
2022/05/08 03:25:42;;;;;;;;;;;;;;;29.71;23.09;101468.94;5056833;28;838;-30
2022/05/08 03:28:08;;;;;;;;;;;;;;;29.74;22.95;101462.31;5057142;28;1963;-32
2022/05/08 03:30:33;;;;;;;;;;;;;;;29.90;23.02;101464.00;5057269;28;1303;-29
2022/05/08 03:33:01;;;;;;;;;;;;;;;30.05;23.03;101466.72;5063894;28;766;-35
2022/05/08 03:35:26;;;;;;;;;;;;;;;29.02;24.56;101470.59;5067221;28;750;-31
2022/05/08 03:37:52;;;;;;;;;;;;;;;28.56;25.43;101469.47;5063397;28;1167;-31
2022/05/08 03:40:17;;;;;;;;;;;;;;;28.07;22.68;101472.09;5056681;28;844;-33
2022/05/08 03:42:43;;;;;;;;;;;;;;;29.00;23.54;101475.34;5056599;28;837;-29
2022/05/08 03:45:08;;;;;;;;;;;;;;;29.52;21.85;101478.38;5059056;28;803;-30
2022/05/08 03:47:34;;;;;;;;;;;;;;;29.52;21.57;101481.94;5061317;28;1964;-31
2022/05/08 03:49:59;;;;;;;;;;;;;;;29.62;20.94;101475.44;5065096;28;867;-34
2022/05/08 03:52:24;;;;;;;;;;;;;;;27.84;21.39;101475.50;5062037;28;1347;-32
2022/05/08 03:54:49;;;;;;;;;;;;;;;26.16;22.26;101477.81;5072178;28;931;-32
2022/05/08 03:57:15;;;;;;;;;;;;;;;25.88;22.72;101472.56;5063389;28;869;-33
2022/05/08 03:59:40;;;;;;;;;;;;;;;25.54;22.81;101474.97;5066647;28;1027;-32
2022/05/08 04:02:05;;;;;;;;;;;;;;;25.01;22.97;101473.94;5066829;28;1351;-28
2022/05/08 04:04:31;;;;;;;;;;;;;;;24.54;23.97;101473.84;5070492;28;1017;-33
2022/05/08 04:06:56;;;;;;;;;;;;;;;23.89;24.53;101480.78;5070577;28;1967;-35
2022/05/08 04:09:22;;;;;;;;;;;;;;;23.77;24.39;101482.78;5073982;28;1378;-34
2022/05/08 04:11:47;;;;;;;;;;;;;;;22.85;25.92;101480.22;5074144;28;860;-32
2022/05/08 04:14:12;;;;;;;;;;;;;;;22.62;26.56;101475.91;5058247;28;821;-36
2022/05/08 04:16:38;;;;;;;;;;;;;;;22.66;26.56;101479.16;5067234;28;1236;-33
2022/05/08 04:19:03;;;;;;;;;;;;;;;22.54;26.84;101475.69;5068690;28;829;-33
2022/05/08 04:21:28;;;;;;;;;;;;;;;22.85;26.62;101482.91;5063179;28;1088;-33
2022/05/08 04:26:43;;;;;;;;;;;;;;;22.88;26.76;101477.28;5408419;23;6903;-33
2022/05/08 04:29:08;;;;;;;;;;;;;;;22.70;27.10;101483.28;4977356;28;960;-34
2022/05/08 04:31:33;;;;;;;;;;;;;;;22.67;27.36;101488.06;4977012;28;983;-34
2022/05/08 04:33:59;;;;;;;;;;;;;;;22.69;27.37;101489.63;4977943;28;812;-35
2022/05/08 04:36:24;;;;;;;;;;;;;;;22.69;27.29;101486.09;4977139;28;1011;-33
2022/05/08 04:38:49;;;;;;;;;;;;;;;22.68;27.20;101487.94;4977567;28;836;-33
2022/05/08 04:41:15;;;;;;;;;;;;;;;22.61;27.40;101486.75;4977830;28;952;-34
2022/05/08 04:43:40;;;;;;;;;;;;;;;22.62;27.41;101488.47;4976947;28;923;-34
2022/05/08 04:46:05;;;;;;;;;;;;;;;22.59;27.98;101489.53;4976842;28;1902;-34
2022/05/08 04:48:30;;;;;;;;;;;;;;;22.67;27.60;101488.06;4977528;28;880;-34
2022/05/08 04:50:56;;;;;;;;;;;;;;;22.69;27.84;101486.94;4977363;28;787;-34
2022/05/08 04:53:21;;;;;;;;;;;;;;;22.84;27.77;101486.56;4977231;28;919;-34
2022/05/08 04:55:46;;;;;;;;;;;;;;;22.61;28.24;101482.25;4976802;28;857;-35
2022/05/08 04:58:12;;;;;;;;;;;;;;;22.69;28.50;101483.44;4976819;28;813;-34
2022/05/08 05:00:37;;;;;;;;;;;;;;;22.71;28.44;101493.03;4977508;28;856;-33
2022/05/08 05:03:02;;;;;;;;;;;;;;;22.59;28.98;101494.91;4977889;28;1086;-33
2022/05/08 05:05:28;;;;;;;;;;;;;;;22.82;28.52;101496.59;4975318;28;835;-34
2022/05/08 05:07:53;;;;;;;;;;;;;;;22.63;28.84;101498.22;4976926;28;1894;-34
2022/05/08 05:10:19;;;;;;;;;;;;;;;22.66;29.06;101494.41;4976820;28;894;-33
2022/05/08 05:12:44;;;;;;;;;;;;;;;22.73;29.35;101496.44;4976803;28;836;-33
2022/05/08 05:15:10;;;;;;;;;;;;;;;23.67;28.97;101498.06;4978710;28;783;-34
2022/05/08 05:17:35;;;;;;;;;;;;;;;24.11;29.07;101499.44;4980809;28;878;-28
2022/05/08 05:20:01;;;;;;;;;;;;;;;24.31;27.82;101497.56;4980060;28;1126;-32
2022/05/08 05:22:26;;;;;;;;;;;;;;;24.40;27.24;101502.09;4980534;28;819;-33
2022/05/08 05:24:51;;;;;;;;;;;;;;;24.48;27.01;101498.66;4980662;28;881;-30
2022/05/08 05:27:17;;;;;;;;;;;;;;;24.51;27.33;101505.56;4994992;28;1977;-32
2022/05/08 05:29:42;;;;;;;;;;;;;;;24.61;27.24;101506.38;4999785;28;897;-28
2022/05/08 05:32:07;;;;;;;;;;;;;;;24.65;27.07;101509.63;4999563;28;826;-30
2022/05/08 05:34:33;;;;;;;;;;;;;;;24.79;27.18;101508.31;4999558;28;818;-29
2022/05/08 05:36:58;;;;;;;;;;;;;;;24.80;27.39;101507.31;4999823;28;734;-29
2022/05/08 05:39:24;;;;;;;;;;;;;;;24.80;27.29;101510.00;4997227;28;1058;-31
2022/05/08 05:41:49;;;;;;;;;;;;;;;24.73;27.30;101503.50;4995188;28;995;-33
2022/05/08 05:44:15;;;;;;;;;;;;;;;24.79;27.31;101513.69;4999501;28;918;-33
2022/05/08 05:49:27;;;;;;;;;;;;;;;24.70;27.60;101512.72;4998764;28;665;-32
2022/05/08 05:51:52;;;;;;;;;;;;;;;24.81;27.39;101507.16;4999814;28;916;-31
2022/05/08 05:54:21;;;;;;;;;;;;;;;24.78;27.40;101518.22;4999610;28;875;-33
2022/05/08 05:56:46;;;;;;;;;;;;;;;24.83;27.40;101515.94;4999712;28;754;-31
2022/05/08 05:59:12;;;;;;;;;;;;;;;24.80;27.67;101515.38;4998750;28;861;-32
2022/05/08 06:01:37;;;;;;;;;;;;;;;24.88;27.69;101515.47;4996227;28;1066;-31
2022/05/08 06:04:02;;;;;;;;;;;;;;;24.91;27.72;101517.03;4999112;28;846;-32
2022/05/08 06:06:28;;;;;;;;;;;;;;;24.92;27.80;101513.38;4999279;28;1898;-32
2022/05/08 06:08:53;;;;;;;;;;;;;;;24.93;27.78;101510.53;4998686;28;897;-32
2022/05/08 06:11:18;;;;;;;;;;;;;;;24.87;28.06;101511.09;4999047;28;813;-32
2022/05/08 06:13:43;;;;;;;;;;;;;;;25.02;27.63;101503.41;4998638;28;821;-32
2022/05/08 06:16:09;;;;;;;;;;;;;;;25.09;27.54;101502.81;4998473;28;1546;-31
2022/05/08 06:18:34;;;;;;;;;;;;;;;25.39;27.06;101508.84;4998773;28;794;-31
2022/05/08 06:20:59;;;;;;;;;;;;;;;25.62;26.60;101509.25;4993902;28;1261;-32
2022/05/08 06:23:25;;;;;;;;;;;;;;;25.82;26.67;101505.56;4998647;28;746;-32
2022/05/08 06:25:50;;;;;;;;;;;;;;;25.90;26.36;101506.47;4997834;28;1201;-30
2022/05/08 06:28:19;;;;;;;;;;;;;;;26.00;26.51;101509.06;4998409;28;1918;-31
2022/05/08 06:30:48;;;;;;;;;;;;;;;25.53;27.05;101510.16;4997645;28;1248;-34
2022/05/08 06:33:13;;;;;;;;;;;;;;;25.31;27.33;101505.06;4998373;28;855;-32
2022/05/08 06:35:39;;;;;;;;;;;;;;;25.26;27.52;101507.34;4998606;28;804;-33
2022/05/08 06:38:04;;;;;;;;;;;;;;;25.48;27.00;101505.22;4998437;28;816;-33
2022/05/08 06:40:30;;;;;;;;;;;;;;;25.65;27.03;101505.41;4998537;28;837;-33
2022/05/08 06:42:55;;;;;;;;;;;;;;;25.46;27.26;101509.91;4998783;28;758;-33
2022/05/08 06:45:24;;;;;;;;;;;;;;;25.46;27.13;101512.59;4998178;28;822;-33
2022/05/08 06:47:49;;;;;;;;;;;;;;;25.52;27.30;101513.84;4991756;28;1902;-33
2022/05/08 06:50:17;;;;;;;;;;;;;;;25.55;27.35;101516.22;4997849;28;886;-33
2022/05/08 06:52:42;;;;;;;;;;;;;;;25.54;27.06;101518.06;4992055;28;827;-32
2022/05/08 06:55:07;;;;;;;;;;;;;;;25.71;26.99;101520.94;4997856;28;877;-33
2022/05/08 06:57:32;;;;;;;;;;;;;;;25.86;26.86;101512.34;4997992;28;810;-33
2022/05/08 07:02:42;;;;;;;;;;;;;;;25.70;27.21;101518.41;4992487;28;663;-33
2022/05/08 07:05:07;;;;;;;;;;;;;;;25.86;26.53;101512.34;4997852;28;1451;-34
2022/05/08 07:07:33;;;;;;;;;;;;;;;25.88;26.90;101513.00;4998307;28;1961;-33
2022/05/08 07:09:58;;;;;;;;;;;;;;;25.77;27.13;101520.34;4997567;28;813;-33
2022/05/08 07:12:23;;;;;;;;;;;;;;;25.70;27.00;101519.28;4998150;28;920;-33
2022/05/08 07:14:49;;;;;;;;;;;;;;;25.82;27.09;101517.19;4997859;28;843;-33
2022/05/08 07:17:14;;;;;;;;;;;;;;;25.66;27.32;101517.88;4997290;28;836;-33
2022/05/08 07:19:39;;;;;;;;;;;;;;;25.67;26.97;101515.00;4998153;28;866;-33
2022/05/08 07:22:04;;;;;;;;;;;;;;;26.08;26.97;101519.06;4997650;28;959;-33
2022/05/08 07:24:30;;;;;;;;;;;;;;;25.96;26.46;101517.63;4997718;28;846;-33
2022/05/08 07:26:57;;;;;;;;;;;;;;;26.02;26.60;101515.16;4997106;28;1985;-34
2022/05/08 07:29:22;;;;;;;;;;;;;;;26.09;26.42;101515.34;4997411;28;826;-34
2022/05/08 07:31:47;;;;;;;;;;;;;;;26.00;26.66;101517.16;4997381;28;847;-34
2022/05/08 07:36:56;;;;;;;;;;;;;;;26.16;26.26;101516.44;4996816;28;820;-34
2022/05/08 07:39:21;;;;;;;;;;;;;;;26.16;26.27;101521.81;4997504;28;739;-34
2022/05/08 07:41:47;;;;;;;;;;;;;;;26.26;25.94;101520.84;4997320;28;767;-34
2022/05/08 07:44:12;;;;;;;;;;;;;;;26.34;26.04;101522.81;4997456;28;1039;-34
2022/05/08 07:46:38;;;;;;;;;;;;;;;26.33;25.96;101521.09;4996777;28;1960;-34
2022/05/08 07:49:03;;;;;;;;;;;;;;;26.48;26.11;101526.75;4997395;28;902;-34
2022/05/08 07:51:28;;;;;;;;;;;;;;;26.28;25.94;101525.09;4997077;28;842;-34
2022/05/08 07:53:54;;;;;;;;;;;;;;;26.16;25.92;101523.66;4992151;28;1439;-34
2022/05/08 07:56:19;;;;;;;;;;;;;;;26.38;25.96;101518.78;4994021;28;825;-34
2022/05/08 07:58:44;;;;;;;;;;;;;;;26.43;25.96;101515.59;4991879;28;756;-34
2022/05/08 08:01:10;;;;;;;;;;;;;;;26.41;25.87;101515.75;4997154;28;1185;-34
2022/05/08 08:03:35;;;;;;;;;;;;;;;26.41;25.86;101521.16;4997037;28;851;-34
2022/05/08 08:06:01;;;;;;;;;;;;;;;26.31;26.02;101528.50;4997078;28;835;-33
2022/05/08 08:08:27;;;;;;;;;;;;;;;26.46;25.91;101518.00;4997319;28;1898;-34
2022/05/08 08:10:53;;;;;;;;;;;;;;;25.44;26.61;101522.72;4996884;28;787;-32
2022/05/08 08:13:19;;;;;;;;;;;;;;;25.02;26.84;101527.63;4997225;28;766;-32
2022/05/08 08:15:45;;;;;;;;;;;;;;;25.17;27.12;101527.13;4996904;28;900;-32
2022/05/08 08:18:19;;;;;;;;;;;;;;;24.85;26.72;101526.53;4996526;28;996;-33
2022/05/08 08:20:45;;;;;;;;;;;;;;;23.95;28.64;101523.22;4996179;28;1035;-33
2022/05/08 08:23:10;;;;;;;;;;;;;;;23.30;30.42;101534.44;4987075;28;1539;-31
2022/05/08 08:25:35;;;;;;;;;;;;;;;24.15;28.47;101520.50;4995205;28;1633;-33
2022/05/08 08:28:01;;;;;;;;;;;;;;;24.49;28.11;101535.28;4996437;28;1968;-33
2022/05/08 08:30:27;;;;;;;;;;;;;;;23.66;29.31;101526.75;4996118;28;1315;-31
2022/05/08 08:32:52;;;;;;;;;;;;;;;23.88;28.68;101531.97;4996093;28;1560;-32
2022/05/08 08:35:17;;;;;;;;;;;;;;;23.92;28.74;101528.84;4996734;28;839;-32
2022/05/08 08:37:43;;;;;;;;;;;;;;;24.09;29.46;101521.91;4997159;28;1007;-32
2022/05/08 08:40:08;;;;;;;;;;;;;;;23.69;29.36;101525.63;4996329;28;752;-31
2022/05/08 08:42:34;;;;;;;;;;;;;;;22.65;31.77;101522.22;4996967;28;911;-33
2022/05/08 08:47:53;;;;;;;;;;;;;;;24.57;27.91;101526.53;4991896;28;1961;-33
2022/05/08 08:50:19;;;;;;;;;;;;;;;24.62;27.15;101524.25;5000585;28;930;-33
2022/05/08 08:52:45;;;;;;;;;;;;;;;25.01;26.87;101531.31;5000548;28;1034;-33
2022/05/08 08:55:10;;;;;;;;;;;;;;;23.52;29.18;101525.34;5000087;28;835;-33
2022/05/08 08:57:36;;;;;;;;;;;;;;;23.77;28.14;101524.91;5000353;28;921;-33
2022/05/08 09:00:02;;;;;;;;;;;;;;;22.92;29.22;101526.16;4999861;28;807;-33
2022/05/08 09:02:27;;;;;;;;;;;;;;;23.27;29.64;101526.66;5000222;28;784;-33
2022/05/08 09:04:54;;;;;;;;;;;;;;;23.10;29.64;101523.66;5000421;28;790;-33
2022/05/08 09:07:38;;;;;;;;;;;;;;;23.94;28.27;101529.56;5000070;28;1887;-33
2022/05/08 09:10:07;;;;;;;;;;;;;;;23.66;28.52;101531.25;4999675;28;873;-32
2022/05/08 09:12:33;;;;;;;;;;;;;;;22.48;30.89;101522.66;5000622;28;875;-31
2022/05/08 09:14:58;;;;;;;;;;;;;;;22.19;31.37;101527.84;4999792;28;866;-32
2022/05/08 09:17:23;;;;;;;;;;;;;;;21.78;31.95;101528.53;4999695;28;794;-33
2022/05/08 09:19:49;;;;;;;;;;;;;;;21.63;31.91;101526.13;5000290;28;797;-32
2022/05/08 09:22:16;;;;;;;;;;;;;;;21.23;32.80;101535.56;4999664;28;1413;-31
2022/05/08 09:24:51;;;;;;;;;;;;;;;24.40;27.85;101533.50;4982086;28;1534;-31
2022/05/08 09:27:17;;;;;;;;;;;;;;;26.71;24.05;101532.44;4999973;28;1992;-31
2022/05/08 09:29:43;;;;;;;;;;;;;;;26.02;25.33;101533.19;4999487;28;849;-30
2022/05/08 09:32:09;;;;;;;;;;;;;;;25.81;25.48;101534.34;4999318;28;897;-32
2022/05/08 09:34:57;;;;;;;;;;;;;;;25.79;25.69;101530.97;4999985;28;869;-30
2022/05/08 09:37:23;;;;;;;;;;;;;;;25.64;25.78;101522.59;4991315;28;1666;-31
2022/05/08 09:39:48;;;;;;;;;;;;;;;25.77;25.52;101527.59;4999542;28;842;-31
2022/05/08 09:42:32;;;;;;;;;;;;;;;25.70;25.65;101521.09;4999502;28;888;-31
2022/05/08 09:45:04;;;;;;;;;;;;;;;25.84;25.71;101520.56;4999658;28;866;-30
2022/05/08 09:48:02;;;;;;;;;;;;;;;25.94;25.38;101514.25;4999422;28;1898;-32
2022/05/08 09:50:28;;;;;;;;;;;;;;;25.83;25.16;101516.16;4962244;28;1394;-32
2022/05/08 09:52:53;;;;;;;;;;;;;;;25.95;25.25;101518.63;4999236;28;794;-31
2022/05/08 09:55:19;;;;;;;;;;;;;;;27.09;24.24;101523.19;4982425;28;1080;-31
2022/05/08 09:57:44;;;;;;;;;;;;;;;27.76;23.09;101518.75;4999093;28;813;-31
2022/05/08 10:00:10;;;;;;;;;;;;;;;28.55;21.74;101528.16;4997801;28;941;-32
2022/05/08 10:02:36;;;;;;;;;;;;;;;28.31;21.32;101519.03;4994436;28;1100;-31
2022/05/08 10:05:01;;;;;;;;;;;;;;;27.41;22.37;101512.63;4999840;28;817;-31
2022/05/08 10:07:27;;;;;;;;;;;;;;;26.96;23.15;101513.66;4998916;28;1898;-31
2022/05/08 10:15:29;;;;;;;;;;;;;;;26.66;23.91;101505.09;4995279;28;1065;-32
2022/05/08 10:18:14;;;;;;;;;;;;;;;26.61;23.92;101510.97;4994439;28;1217;-31
2022/05/08 10:20:58;;;;;;;;;;;;;;;26.62;23.78;101503.75;4997010;28;1693;-31
2022/05/08 10:23:33;;;;;;;;;;;;;;;27.66;22.88;101507.25;4998142;28;1097;-31
2022/05/08 10:26:17;;;;;;;;;;;;;;;28.68;21.38;101514.06;4998466;28;1162;-31
2022/05/08 10:29:01;;;;;;;;;;;;;;;28.90;21.14;101524.28;4998483;28;1037;-32
2022/05/08 10:31:45;;;;;;;;;;;;;;;27.58;22.80;101510.78;4998183;28;810;-31
2022/05/08 10:34:11;;;;;;;;;;;;;;;27.01;23.65;101505.06;4998707;28;767;-31
2022/05/08 10:36:36;;;;;;;;;;;;;;;27.06;23.65;101507.31;4992673;28;997;-30
2022/05/08 10:39:38;;;;;;;;;;;;;;;26.97;23.79;101506.41;4998419;28;800;-30
2022/05/08 10:42:04;;;;;;;;;;;;;;;26.92;24.31;101504.22;4900750;29;1265;-32
2022/05/08 10:44:37;;;;;;;;;;;;;;;26.82;24.10;101501.66;4973025;28;1100;-31
2022/05/08 10:47:20;;;;;;;;;;;;;;;26.83;24.38;101500.63;4996359;28;1902;-30
2022/05/08 10:49:46;;;;;;;;;;;;;;;28.21;22.50;101491.34;4997514;28;822;-32
2022/05/08 10:52:11;;;;;;;;;;;;;;;28.96;21.88;101497.34;4991216;28;881;-30
2022/05/08 10:54:36;;;;;;;;;;;;;;;28.66;21.07;101493.59;4998296;28;1095;-31
2022/05/08 10:57:02;;;;;;;;;;;;;;;27.70;22.89;101487.84;4992602;28;1042;-30
2022/05/08 10:59:45;;;;;;;;;;;;;;;27.58;22.94;101492.72;4993058;28;1055;-30
2022/05/08 11:02:11;;;;;;;;;;;;;;;27.38;23.42;101489.47;4995668;28;1202;-31
2022/05/08 11:04:52;;;;;;;;;;;;;;;27.23;23.35;101484.72;4997409;28;1303;-31
2022/05/08 11:07:21;;;;;;;;;;;;;;;27.18;23.74;101484.38;4997347;28;1956;-31
2022/05/08 11:09:47;;;;;;;;;;;;;;;27.18;23.86;101486.22;4993067;28;1062;-32
2022/05/08 11:12:12;;;;;;;;;;;;;;;27.07;23.98;101479.28;4997227;28;1293;-32
2022/05/08 11:14:37;;;;;;;;;;;;;;;28.04;23.01;101475.16;4979491;28;1253;-32
2022/05/08 11:17:15;;;;;;;;;;;;;;;28.69;22.15;101480.56;4997895;28;1240;-32
2022/05/08 11:19:51;;;;;;;;;;;;;;;28.78;21.86;101489.47;4991580;28;955;-31
2022/05/08 11:22:16;;;;;;;;;;;;;;;27.73;23.20;101478.53;4991404;28;1185;-30
2022/05/08 11:24:42;;;;;;;;;;;;;;;27.45;24.18;101486.94;4994891;28;1059;-32
2022/05/08 11:27:14;;;;;;;;;;;;;;;27.31;24.65;101480.38;4975303;28;1946;-32
2022/05/08 11:29:48;;;;;;;;;;;;;;;27.46;24.11;101488.66;4992515;28;1279;-31
2022/05/08 11:38:00;;;;;;;;;;;;;;;27.52;24.48;101479.88;4996411;28;1205;-31
2022/05/08 11:40:26;;;;;;;;;;;;;;;28.42;23.57;101474.56;4994806;28;1055;-32
2022/05/08 11:42:51;;;;;;;;;;;;;;;29.01;22.63;101479.75;4993269;28;1117;-30
2022/05/08 11:45:17;;;;;;;;;;;;;;;28.30;23.29;101479.47;4994872;28;972;-30
2022/05/08 11:47:48;;;;;;;;;;;;;;;27.85;24.16;101470.94;4993767;28;2024;-31
2022/05/08 11:50:14;;;;;;;;;;;;;;;27.44;24.67;101475.31;4986217;28;1318;-31
2022/05/08 11:52:39;;;;;;;;;;;;;;;27.17;25.21;101481.84;4994831;28;1047;-32
2022/05/08 11:55:04;;;;;;;;;;;;;;;27.08;25.70;101470.19;4991990;28;1106;-32
2022/05/08 11:57:30;;;;;;;;;;;;;;;27.07;25.54;101463.09;4994754;28;1295;-31
2022/05/08 12:00:06;;;;;;;;;;;;;;;27.17;25.42;101468.34;4979172;28;1180;-31
2022/05/08 12:02:37;;;;;;;;;;;;;;;27.14;25.65;101466.84;4997425;28;1000;-31
2022/05/08 12:05:03;;;;;;;;;;;;;;;28.21;24.24;101467.81;4997210;28;849;-32
2022/05/08 12:07:36;;;;;;;;;;;;;;;28.99;23.37;101465.53;4996757;28;1961;-31
2022/05/08 12:10:01;;;;;;;;;;;;;;;28.18;23.97;101465.47;4990915;28;994;-30
2022/05/08 12:12:27;;;;;;;;;;;;;;;27.58;25.13;101457.56;4995360;28;1090;-30
2022/05/08 12:14:59;;;;;;;;;;;;;;;27.10;25.95;101451.97;4995636;28;1140;-32
2022/05/08 12:17:24;;;;;;;;;;;;;;;27.06;26.06;101466.81;4996692;28;1268;-31
2022/05/08 12:19:51;;;;;;;;;;;;;;;27.10;25.27;101454.66;4989262;28;1306;-31
2022/05/08 12:22:17;;;;;;;;;;;;;;;27.05;25.80;101449.75;4995098;28;1153;-30
2022/05/08 12:24:43;;;;;;;;;;;;;;;26.93;25.99;101451.03;5002269;28;762;-30
2022/05/08 12:27:08;;;;;;;;;;;;;;;26.95;26.23;101444.47;5003131;28;1969;-30
2022/05/08 12:29:33;;;;;;;;;;;;;;;27.99;24.52;101445.91;5002988;28;902;-31
2022/05/08 12:31:59;;;;;;;;;;;;;;;29.00;23.18;101443.69;5003696;28;830;-32
2022/05/08 12:34:24;;;;;;;;;;;;;;;28.51;23.77;101442.06;5003015;28;912;-32
2022/05/08 12:36:50;;;;;;;;;;;;;;;27.25;25.66;101439.50;5002974;28;782;-33
2022/05/08 12:39:16;;;;;;;;;;;;;;;26.95;25.95;101430.13;5003214;28;845;-33
2022/05/08 12:41:41;;;;;;;;;;;;;;;27.41;25.54;101436.97;5003371;28;787;-30
2022/05/08 12:44:06;;;;;;;;;;;;;;;27.43;25.63;101430.38;5002570;28;826;-33
2022/05/08 12:46:32;;;;;;;;;;;;;;;27.38;25.60;101427.34;5003002;28;1902;-33
2022/05/08 12:49:08;;;;;;;;;;;;;;;27.43;25.53;101422.28;5001922;28;826;-32
2022/05/08 12:51:34;;;;;;;;;;;;;;;27.42;25.79;101423.31;4996187;28;1120;-32
2022/05/08 12:54:03;;;;;;;;;;;;;;;27.65;24.96;101430.72;5002867;28;857;-34
2022/05/08 12:56:31;;;;;;;;;;;;;;;28.42;23.79;101422.31;5002875;28;826;-33
2022/05/08 13:01:41;;;;;;;;;;;;;;;27.57;24.81;101411.81;5002417;28;788;-31
2022/05/08 13:04:06;;;;;;;;;;;;;;;26.88;25.38;101413.75;5002661;28;791;-33
2022/05/08 13:06:32;;;;;;;;;;;;;;;27.13;25.94;101416.50;5002686;28;1898;-34
2022/05/08 13:08:57;;;;;;;;;;;;;;;26.95;26.11;101409.38;5002728;28;925;-33
2022/05/08 13:11:23;;;;;;;;;;;;;;;27.07;25.96;101409.94;5003156;28;874;-33
2022/05/08 13:13:49;;;;;;;;;;;;;;;26.94;26.01;101402.31;5002746;28;1050;-33
2022/05/08 13:16:15;;;;;;;;;;;;;;;26.88;25.89;101395.69;5002919;28;877;-30
2022/05/08 13:18:40;;;;;;;;;;;;;;;27.89;24.43;101407.41;5002943;28;806;-30
2022/05/08 13:21:06;;;;;;;;;;;;;;;29.03;23.07;101401.88;5002893;28;1002;-30
2022/05/08 13:23:31;;;;;;;;;;;;;;;28.57;23.17;101403.47;4985473;28;835;-31
2022/05/08 13:25:56;;;;;;;;;;;;;;;27.56;24.53;101396.63;5002475;28;1248;-31